createdAt,value
2018-05-12T00:00:09.678Z,95.70
2018-05-12T00:02:37.247Z,95.70
2018-05-12T00:05:04.797Z,95.80
2018-05-12T00:07:32.275Z,96.00
2018-05-12T00:09:59.885Z,95.90
2018-05-12T00:12:27.476Z,96.10
2018-05-12T00:14:55.138Z,96.20
2018-05-12T00:17:22.608Z,96.30
2018-05-12T00:19:50.123Z,96.20
2018-05-12T00:22:17.667Z,96.20
2018-05-12T00:24:45.259Z,96.10
2018-05-12T00:27:12.885Z,96.00
2018-05-12T00:29:40.408Z,96.10
2018-05-12T00:32:07.896Z,96.10
2018-05-12T00:34:35.389Z,95.70
2018-05-12T00:37:02.884Z,95.80
2018-05-12T00:39:30.450Z,96.10
2018-05-12T00:41:58.761Z,96.20
2018-05-12T00:44:26.329Z,96.10
2018-05-12T00:46:53.835Z,96.20
2018-05-12T00:49:21.429Z,96.30
2018-05-12T00:51:48.990Z,96.20
2018-05-12T00:54:17.255Z,96.20
2018-05-12T00:56:44.832Z,96.20
2018-05-12T00:59:12.375Z,96.30
2018-05-12T01:01:39.944Z,96.60
2018-05-12T01:04:07.526Z,96.60
2018-05-12T01:06:35.094Z,96.60
2018-05-12T01:09:02.572Z,96.50
2018-05-12T01:11:30.100Z,96.60
2018-05-12T01:13:57.703Z,96.70
2018-05-12T01:16:25.272Z,96.70
2018-05-12T01:18:53.557Z,96.80
2018-05-12T01:21:21.121Z,96.70
2018-05-12T01:23:49.430Z,96.70
2018-05-12T01:26:17.001Z,96.60
2018-05-12T01:28:45.262Z,96.60
2018-05-12T01:31:12.800Z,96.50
2018-05-12T01:33:40.385Z,96.50
2018-05-12T01:36:08.641Z,96.40
2018-05-12T01:38:37.056Z,96.40
2018-05-12T01:41:04.671Z,96.70
2018-05-12T01:43:32.912Z,97.20
2018-05-12T01:46:00.473Z,97.10
2018-05-12T01:48:27.970Z,97.20
2018-05-12T01:50:55.519Z,97.10
2018-05-12T01:53:23.005Z,97.00
2018-05-12T01:55:50.521Z,97.20
2018-05-12T01:58:18.007Z,97.20
2018-05-12T02:00:45.550Z,97.40
2018-05-12T02:03:13.109Z,97.60
2018-05-12T02:05:40.643Z,98.00
2018-05-12T02:08:08.141Z,97.80
2018-05-12T02:10:35.887Z,97.80
2018-05-12T02:13:03.385Z,97.50
2018-05-12T02:15:30.903Z,97.50
2018-05-12T02:17:58.385Z,97.50
2018-05-12T02:20:25.903Z,97.30
2018-05-12T02:22:53.441Z,97.30
2018-05-12T02:25:20.950Z,97.40
2018-05-12T02:27:48.504Z,97.40
2018-05-12T02:30:16.034Z,97.50
2018-05-12T02:32:43.503Z,98.00
2018-05-12T02:35:11.909Z,98.20
2018-05-12T02:37:39.470Z,98.10
2018-05-12T02:40:07.741Z,97.80
2018-05-12T02:42:35.308Z,97.80
2018-05-12T02:45:02.814Z,97.80
2018-05-12T02:47:30.356Z,98.10
2018-05-12T02:49:57.900Z,98.40
2018-05-12T02:52:26.164Z,98.60
2018-05-12T02:54:53.641Z,98.60
2018-05-12T02:57:21.202Z,98.30
2018-05-12T02:59:48.770Z,98.30
2018-05-12T03:02:16.318Z,98.40
2018-05-12T03:04:43.869Z,98.30
2018-05-12T03:07:11.418Z,98.30
2018-05-12T03:09:38.926Z,98.40
2018-05-12T03:12:06.480Z,98.30
2018-05-12T03:14:34.015Z,98.30
2018-05-12T03:17:01.782Z,98.20
2018-05-12T03:19:29.346Z,98.20
2018-05-12T03:21:56.866Z,98.30
2018-05-12T03:24:24.356Z,98.30
2018-05-12T03:26:51.931Z,98.30
2018-05-12T03:29:19.439Z,98.50
2018-05-12T03:31:46.990Z,98.60
2018-05-12T03:34:14.493Z,98.50
2018-05-12T03:36:42.033Z,98.40
2018-05-12T03:39:09.614Z,98.20
2018-05-12T03:41:37.191Z,98.00
2018-05-12T03:44:04.719Z,98.00
2018-05-12T03:46:32.262Z,97.90
2018-05-12T03:48:59.827Z,97.80
2018-05-12T03:51:27.371Z,97.70
2018-05-12T03:53:54.914Z,97.40
2018-05-12T03:56:22.449Z,97.50
2018-05-12T03:58:51.475Z,97.30
2018-05-12T04:01:18.992Z,97.20
2018-05-12T04:03:46.523Z,97.20
2018-05-12T04:06:25.938Z,97.10
2018-05-12T04:09:05.301Z,97.10
2018-05-12T04:11:45.811Z,97.10
2018-05-12T04:14:13.402Z,97.10
2018-05-12T04:16:40.900Z,97.00
2018-05-12T04:19:09.243Z,96.70
2018-05-12T04:21:36.935Z,96.70
2018-05-12T04:24:04.546Z,97.00
2018-05-12T04:26:32.029Z,96.70
2018-05-12T04:28:59.514Z,96.60
2018-05-12T04:31:27.080Z,96.80
2018-05-12T04:33:55.514Z,96.80
2018-05-12T04:36:23.075Z,96.70
2018-05-12T04:38:51.417Z,96.60
2018-05-12T04:41:18.942Z,96.70
2018-05-12T04:43:46.485Z,96.80
2018-05-12T04:46:14.777Z,96.70
2018-05-12T04:48:43.382Z,96.40
2018-05-12T04:51:10.970Z,96.50
2018-05-12T04:53:38.528Z,96.30
2018-05-12T04:56:06.122Z,96.30
2018-05-12T04:58:33.744Z,96.00
2018-05-12T05:01:02.094Z,96.00
2018-05-12T05:03:29.657Z,95.90
2018-05-12T05:05:57.299Z,95.90
2018-05-12T05:08:25.071Z,95.70
2018-05-12T05:10:52.947Z,95.50
2018-05-12T05:13:20.875Z,95.50
2018-05-12T05:15:48.451Z,95.80
2018-05-12T05:18:16.761Z,95.20
2018-05-12T05:20:44.365Z,94.80
2018-05-12T05:23:11.937Z,94.70
2018-05-12T05:25:39.675Z,95.10
2018-05-12T05:28:07.234Z,94.50
2018-05-12T05:30:34.781Z,94.70
2018-05-12T05:33:02.261Z,94.60
2018-05-12T05:35:29.818Z,94.60
2018-05-12T05:37:57.339Z,94.50
2018-05-12T05:40:24.876Z,94.30
2018-05-12T05:42:52.410Z,94.30
2018-05-12T05:45:19.916Z,94.00
2018-05-12T05:47:47.413Z,94.00
2018-05-12T05:50:15.803Z,93.40
2018-05-12T05:52:43.288Z,93.40
2018-05-12T05:55:10.843Z,92.90
2018-05-12T05:57:38.331Z,93.30
2018-05-12T06:00:05.912Z,92.60
2018-05-12T06:02:33.538Z,93.30
2018-05-12T06:05:01.042Z,92.80
2018-05-12T06:07:29.301Z,93.00
2018-05-12T06:09:56.789Z,93.00
2018-05-12T06:12:24.345Z,93.30
2018-05-12T06:14:51.934Z,92.90
2018-05-12T06:17:19.436Z,92.10
2018-05-12T06:19:47.760Z,93.00
2018-05-12T06:22:15.240Z,93.00
2018-05-12T06:24:42.722Z,92.70
2018-05-12T06:27:10.204Z,92.00
2018-05-12T06:29:37.739Z,92.40
2018-05-12T06:32:05.279Z,92.50
2018-05-12T06:34:32.863Z,92.20
2018-05-12T06:37:01.346Z,92.30
2018-05-12T06:39:28.993Z,91.60
2018-05-12T06:41:56.529Z,91.30
2018-05-12T06:44:23.997Z,90.80
2018-05-12T06:46:51.490Z,91.60
2018-05-12T06:49:18.965Z,91.40
2018-05-12T06:51:46.468Z,91.30
2018-05-12T06:54:13.953Z,91.10
2018-05-12T06:56:41.439Z,91.40
2018-05-12T06:59:09.864Z,91.10
2018-05-12T07:01:37.362Z,90.90
2018-05-12T07:04:05.660Z,90.00
2018-05-12T07:06:33.901Z,90.20
2018-05-12T07:09:01.477Z,90.60
2018-05-12T07:11:28.954Z,89.40
2018-05-12T07:13:56.432Z,88.70
2018-05-12T07:16:23.922Z,89.20
2018-05-12T07:18:52.297Z,87.60
2018-05-12T07:21:19.766Z,88.10
2018-05-12T07:23:48.023Z,88.50
2018-05-12T07:26:15.527Z,87.70
2018-05-12T07:28:43.095Z,86.70
2018-05-12T07:31:10.601Z,86.60
2018-05-12T07:33:38.882Z,86.20
2018-05-12T07:36:06.434Z,86.20
2018-05-12T07:38:33.963Z,85.30
2018-05-12T07:41:01.464Z,85.20
2018-05-12T07:43:29.731Z,84.60
2018-05-12T07:45:57.253Z,84.60
2018-05-12T07:48:25.529Z,84.20
2018-05-12T07:50:53.013Z,84.10
2018-05-12T07:53:20.497Z,83.40
2018-05-12T07:55:48.755Z,83.10
2018-05-12T07:58:16.220Z,83.00
2018-05-12T08:00:43.724Z,82.50
2018-05-12T08:03:11.214Z,82.10
2018-05-12T08:05:38.721Z,82.10
2018-05-12T08:08:06.992Z,84.00
2018-05-12T08:10:34.570Z,83.90
2018-05-12T08:13:02.069Z,84.90
2018-05-12T08:15:29.558Z,82.40
2018-05-12T08:17:57.086Z,83.80
2018-05-12T08:20:24.601Z,83.20
2018-05-12T08:22:52.104Z,83.70
2018-05-12T08:25:19.599Z,83.80
2018-05-12T08:27:47.085Z,83.80
2018-05-12T08:30:15.419Z,82.70
2018-05-12T08:32:42.909Z,82.70
2018-05-12T08:35:10.429Z,81.40
2018-05-12T08:37:37.908Z,81.70
2018-05-12T08:40:05.396Z,79.80
2018-05-12T08:42:32.917Z,80.40
2018-05-12T08:45:00.398Z,80.40
2018-05-12T08:47:27.897Z,79.60
2018-05-12T08:49:55.382Z,79.10
2018-05-12T08:52:22.873Z,78.70
2018-05-12T08:54:50.374Z,78.70
2018-05-12T08:57:17.858Z,79.50
2018-05-12T08:59:45.375Z,77.10
2018-05-12T09:02:12.873Z,76.20
2018-05-12T09:04:40.364Z,73.00
2018-05-12T09:07:07.946Z,74.50
2018-05-12T09:09:36.158Z,74.90
2018-05-12T09:12:03.696Z,74.90
2018-05-12T09:14:31.307Z,74.10
2018-05-12T09:16:58.876Z,75.00
2018-05-12T09:19:32.727Z,74.40
2018-05-12T09:22:00.312Z,74.10
2018-05-12T09:24:27.841Z,72.60
2018-05-12T09:26:56.112Z,73.70
2018-05-12T09:29:23.606Z,73.70
2018-05-12T09:31:52.165Z,72.70
2018-05-12T09:34:19.679Z,74.00
2018-05-12T09:36:47.196Z,73.30
2018-05-12T09:39:15.447Z,71.50
2018-05-12T09:41:42.937Z,71.50
2018-05-12T09:44:10.432Z,71.60
2018-05-12T09:46:37.973Z,71.90
2018-05-12T09:49:05.605Z,71.00
2018-05-12T09:51:33.921Z,70.20
2018-05-12T09:54:02.188Z,69.60
2018-05-12T09:56:29.666Z,69.60
2018-05-12T09:58:57.162Z,70.10
2018-05-12T10:01:25.220Z,70.20
2018-05-12T10:03:52.734Z,70.50
2018-05-12T10:06:20.233Z,68.60
2018-05-12T10:08:47.740Z,69.00
2018-05-12T10:11:15.289Z,68.40
2018-05-12T10:13:42.762Z,67.70
2018-05-12T10:16:10.260Z,68.90
2018-05-12T10:18:38.538Z,66.70
2018-05-12T10:21:06.085Z,66.60
2018-05-12T10:23:33.581Z,67.10
2018-05-12T10:26:01.073Z,67.20
2018-05-12T10:28:28.581Z,67.40
2018-05-12T10:30:56.102Z,67.40
2018-05-12T10:33:23.611Z,67.50
2018-05-12T10:35:51.125Z,67.30
2018-05-12T10:38:19.380Z,66.50
2018-05-12T10:40:46.923Z,66.50
2018-05-12T10:43:15.223Z,63.90
2018-05-12T10:45:43.488Z,65.30
2018-05-12T10:48:10.980Z,65.20
2018-05-12T10:50:38.478Z,64.60
2018-05-12T10:53:06.719Z,63.70
2018-05-12T10:55:34.209Z,63.70
2018-05-12T10:58:01.689Z,63.50
2018-05-12T11:00:29.169Z,64.20
2018-05-12T11:02:56.641Z,65.30
2018-05-12T11:05:24.128Z,65.00
2018-05-12T11:07:51.637Z,64.00
2018-05-12T11:10:19.895Z,66.10
2018-05-12T11:12:47.472Z,66.10
2018-05-12T11:15:14.965Z,65.00
2018-05-12T11:17:42.464Z,63.70
2018-05-12T11:20:09.980Z,64.20
2018-05-12T11:22:37.453Z,63.40
2018-05-12T11:25:04.939Z,62.50
2018-05-12T11:27:32.421Z,63.90
2018-05-12T11:29:59.904Z,62.60
2018-05-12T11:32:27.395Z,62.10
2018-05-12T11:34:54.889Z,62.00
2018-05-12T11:37:22.360Z,63.30
2018-05-12T11:39:49.846Z,61.90
2018-05-12T11:42:17.337Z,62.60
2018-05-12T11:44:44.930Z,62.30
2018-05-12T11:47:12.338Z,63.00
2018-05-12T11:49:39.820Z,62.60
2018-05-12T11:52:07.305Z,61.80
2018-05-12T11:54:34.840Z,62.60
2018-05-12T11:57:02.335Z,62.60
2018-05-12T11:59:30.580Z,60.50
2018-05-12T12:01:58.069Z,61.10
2018-05-12T12:04:25.580Z,63.20
2018-05-12T12:06:53.032Z,61.30
2018-05-12T12:09:20.522Z,61.30
2018-05-12T12:11:47.996Z,60.50
2018-05-12T12:14:15.488Z,61.20
2018-05-12T12:16:43.036Z,60.70
2018-05-12T12:19:10.456Z,60.60
2018-05-12T12:21:37.944Z,60.80
2018-05-12T12:24:05.435Z,60.80
2018-05-12T12:26:32.913Z,60.70
2018-05-12T12:29:00.405Z,60.00
2018-05-12T12:31:27.886Z,61.80
2018-05-12T12:33:56.150Z,60.70
2018-05-12T12:36:23.633Z,60.70
2018-05-12T12:38:51.610Z,60.30
2018-05-12T12:41:19.085Z,60.50
2018-05-12T12:43:46.573Z,60.80
2018-05-12T12:46:14.053Z,61.50
2018-05-12T12:48:41.536Z,60.60
2018-05-12T12:51:09.013Z,62.20
2018-05-12T12:53:36.491Z,59.90
2018-05-12T12:56:03.980Z,59.70
2018-05-12T12:58:31.461Z,59.60
2018-05-12T13:00:58.936Z,59.10
2018-05-12T13:03:26.413Z,59.30
2018-05-12T13:05:53.905Z,58.60
2018-05-12T13:08:21.384Z,58.10
2018-05-12T13:10:48.906Z,58.80
2018-05-12T13:13:16.366Z,58.10
2018-05-12T13:15:43.858Z,58.00
2018-05-12T13:18:11.344Z,58.80
2018-05-12T13:20:38.824Z,59.60
2018-05-12T13:23:06.304Z,59.40
2018-05-12T13:25:34.094Z,59.40
2018-05-12T13:28:01.606Z,58.50
2018-05-12T13:30:29.061Z,59.30
2018-05-12T13:32:56.546Z,58.20
2018-05-12T13:35:24.034Z,59.30
2018-05-12T13:37:51.520Z,59.00
2018-05-12T13:40:19.025Z,58.60
2018-05-12T13:42:46.493Z,58.40
2018-05-12T13:45:13.984Z,59.00
2018-05-12T13:47:42.243Z,57.90
2018-05-12T13:50:09.729Z,57.80
2018-05-12T13:52:37.211Z,57.80
2018-05-12T13:55:04.688Z,57.60
2018-05-12T13:57:32.172Z,57.20
2018-05-12T13:59:59.652Z,57.10
2018-05-12T14:02:27.147Z,57.10
2018-05-12T14:04:54.617Z,57.20
2018-05-12T14:07:22.196Z,57.30
2018-05-12T14:09:49.690Z,56.50
2018-05-12T14:12:17.200Z,55.40
2018-05-12T14:14:45.506Z,55.50
2018-05-12T14:17:13.043Z,55.50
2018-05-12T14:19:40.589Z,54.70
2018-05-12T14:22:08.073Z,55.00
2018-05-12T14:24:35.581Z,54.60
2018-05-12T14:27:03.095Z,53.70
2018-05-12T14:29:30.591Z,53.50
2018-05-12T14:31:58.910Z,52.90
2018-05-12T14:34:26.383Z,52.80
2018-05-12T14:36:53.878Z,52.20
2018-05-12T14:39:21.370Z,52.60
2018-05-12T14:41:48.860Z,53.20
2018-05-12T14:44:16.336Z,52.70
2018-05-12T14:46:43.922Z,52.70
2018-05-12T14:49:11.425Z,53.50
2018-05-12T14:51:38.895Z,52.40
2018-05-12T14:54:06.408Z,52.50
2018-05-12T14:56:33.918Z,52.00
2018-05-12T14:59:01.445Z,51.90
2018-05-12T15:01:29.014Z,52.00
2018-05-12T15:03:56.498Z,51.80
2018-05-12T15:06:23.994Z,52.50
2018-05-12T15:08:51.621Z,51.80
2018-05-12T15:11:19.102Z,51.90
2018-05-12T15:13:46.752Z,51.50
2018-05-12T15:16:14.227Z,51.10
2018-05-12T15:18:41.714Z,50.60
2018-05-12T15:21:09.199Z,50.30
2018-05-12T15:23:36.838Z,50.60
2018-05-12T15:26:04.388Z,50.10
2018-05-12T15:28:32.707Z,49.50
2018-05-12T15:31:00.275Z,49.50
2018-05-12T15:33:28.546Z,49.90
2018-05-12T15:35:56.085Z,49.80
2018-05-12T15:38:23.592Z,49.30
2018-05-12T15:40:51.098Z,47.40
2018-05-12T15:43:18.615Z,46.60
2018-05-12T15:45:47.029Z,47.20
2018-05-12T15:48:14.548Z,47.30
2018-05-12T15:50:42.038Z,45.60
2018-05-12T15:53:09.555Z,43.30
2018-05-12T15:55:37.057Z,41.50
2018-05-12T15:58:04.568Z,40.90
2018-05-12T16:00:32.045Z,39.00
2018-05-12T16:02:59.558Z,37.30
2018-05-12T16:05:27.837Z,36.60
2018-05-12T16:07:56.178Z,36.40
2018-05-12T16:10:23.794Z,35.00
2018-05-12T16:12:51.296Z,33.90
2018-05-12T16:15:18.931Z,33.60
2018-05-12T16:17:48.498Z,33.90
2018-05-12T16:20:16.027Z,33.20
2018-05-12T16:22:45.029Z,32.90
2018-05-12T16:25:13.312Z,33.00
2018-05-12T16:27:40.796Z,32.90
2018-05-12T16:30:08.291Z,33.40
2018-05-12T16:32:35.779Z,34.10
2018-05-12T16:35:03.376Z,34.90
2018-05-12T16:37:30.883Z,36.70
2018-05-12T16:39:58.375Z,37.50
2018-05-12T16:42:25.964Z,39.30
2018-05-12T16:44:53.477Z,40.00
2018-05-12T16:47:20.962Z,40.00
2018-05-12T16:49:48.477Z,39.80
2018-05-12T16:52:16.763Z,40.40
2018-05-12T16:54:44.255Z,40.30
2018-05-12T16:57:12.565Z,37.30
2018-05-12T16:59:40.045Z,37.10
2018-05-12T17:02:07.582Z,36.70
2018-05-12T17:04:35.097Z,38.90
2018-05-12T17:07:02.629Z,40.10
2018-05-12T17:09:30.146Z,41.30
2018-05-12T17:11:57.630Z,42.30
2018-05-12T17:14:25.987Z,44.10
2018-05-12T17:16:53.487Z,44.00
2018-05-12T17:19:20.993Z,42.60
2018-05-12T17:21:48.549Z,41.30
2018-05-12T17:24:16.029Z,40.80
2018-05-12T17:26:43.517Z,40.40
2018-05-12T17:29:11.000Z,38.60
2018-05-12T17:31:38.495Z,37.30
2018-05-12T17:34:07.317Z,36.50
2018-05-12T17:36:34.813Z,36.50
2018-05-12T17:39:02.287Z,35.80
2018-05-12T17:41:29.767Z,35.90
2018-05-12T17:43:58.016Z,36.40
2018-05-12T17:46:25.501Z,36.30
2018-05-12T17:48:53.001Z,36.10
2018-05-12T17:51:20.500Z,35.70
2018-05-12T17:53:47.987Z,36.40
2018-05-12T17:56:16.242Z,37.60
2018-05-12T17:58:43.775Z,37.60
2018-05-12T18:01:12.023Z,40.00
2018-05-12T18:03:39.614Z,39.90
2018-05-12T18:06:07.969Z,41.80
2018-05-12T18:08:35.472Z,43.70
2018-05-12T18:11:03.005Z,45.40
2018-05-12T18:13:31.298Z,47.90
2018-05-12T18:15:58.786Z,47.90
2018-05-12T18:18:27.080Z,50.30
2018-05-12T18:20:54.565Z,50.30
2018-05-12T18:23:22.838Z,52.50
2018-05-12T18:25:50.320Z,52.30
2018-05-12T18:28:17.804Z,53.30
2018-05-12T18:30:45.373Z,54.20
2018-05-12T18:33:12.850Z,54.80
2018-05-12T18:35:40.381Z,55.60
2018-05-12T18:38:07.870Z,56.80
2018-05-12T18:40:36.121Z,57.80
2018-05-12T18:43:03.602Z,57.80
2018-05-12T18:45:31.106Z,61.40
2018-05-12T18:47:59.493Z,64.00
2018-05-12T18:50:27.019Z,65.50
2018-05-12T18:52:54.544Z,66.90
2018-05-12T18:55:22.054Z,67.90
2018-05-12T18:57:49.537Z,68.60
2018-05-12T19:00:17.793Z,69.90
2018-05-12T19:02:45.279Z,69.90
2018-05-12T19:05:12.758Z,70.40
2018-05-12T19:07:40.238Z,70.80
2018-05-12T19:10:07.723Z,71.30
2018-05-12T19:12:35.200Z,71.30
2018-05-12T19:15:02.700Z,71.30
2018-05-12T19:17:30.180Z,71.40
2018-05-12T19:19:57.684Z,72.00
2018-05-12T19:22:25.229Z,72.00
2018-05-12T19:24:52.669Z,72.70
2018-05-12T19:27:20.176Z,72.90
2018-05-12T19:29:47.661Z,73.00
2018-05-12T19:32:15.178Z,73.40
2018-05-12T19:34:42.678Z,73.40
2018-05-12T19:37:10.919Z,73.90
2018-05-12T19:39:38.435Z,73.80
2018-05-12T19:42:05.958Z,74.10
2018-05-12T19:44:33.437Z,74.60
2018-05-12T19:47:01.709Z,75.20
2018-05-12T19:49:29.194Z,75.20
2018-05-12T19:51:56.676Z,75.50
2018-05-12T19:54:24.925Z,76.80
2018-05-12T19:56:52.402Z,76.50
2018-05-12T19:59:19.890Z,76.70
2018-05-12T20:01:48.168Z,77.20
2018-05-12T20:04:15.678Z,77.20
2018-05-12T20:06:43.189Z,77.20
2018-05-12T20:09:10.673Z,77.40
2018-05-12T20:11:38.185Z,77.60
2018-05-12T20:14:05.661Z,77.70
2018-05-12T20:16:33.142Z,78.10
2018-05-12T20:19:00.647Z,78.10
2018-05-12T20:21:28.133Z,78.70
2018-05-12T20:23:55.608Z,78.70
2018-05-12T20:26:23.098Z,79.10
2018-05-12T20:28:50.974Z,79.30
2018-05-12T20:31:18.474Z,79.70
2018-05-12T20:33:45.981Z,79.90
2018-05-12T20:36:13.476Z,80.10
2018-05-12T20:38:40.971Z,80.30
2018-05-12T20:41:09.241Z,80.60
2018-05-12T20:43:36.720Z,80.60
2018-05-12T20:46:04.202Z,80.60
2018-05-12T20:48:31.737Z,80.80
2018-05-12T20:50:59.221Z,80.90
2018-05-12T20:53:26.701Z,81.10
2018-05-12T20:55:54.200Z,81.20
2018-05-12T20:58:21.667Z,81.60
2018-05-12T21:00:49.163Z,81.80
2018-05-12T21:03:16.637Z,82.10
2018-05-12T21:05:44.110Z,82.30
2018-05-12T21:08:11.598Z,82.30
2018-05-12T21:10:39.080Z,82.30
2018-05-12T21:13:06.584Z,82.80
2018-05-12T21:15:34.098Z,82.70
2018-05-12T21:18:01.561Z,82.90
2018-05-12T21:20:29.082Z,83.20
2018-05-12T21:22:56.568Z,83.20
2018-05-12T21:25:24.053Z,83.30
2018-05-12T21:27:51.536Z,83.30
2018-05-12T21:30:19.013Z,83.70
2018-05-12T21:32:46.530Z,83.60
2018-05-12T21:35:14.005Z,83.90
2018-05-12T21:37:41.480Z,84.10
2018-05-12T21:40:08.962Z,84.30
2018-05-12T21:42:36.442Z,84.40
2018-05-12T21:45:03.927Z,84.40
2018-05-12T21:47:31.414Z,85.00
2018-05-12T21:49:58.912Z,84.90
2018-05-12T21:52:26.388Z,85.50
2018-05-12T21:54:53.861Z,85.60
2018-05-12T21:57:21.361Z,85.80
2018-05-12T21:59:48.898Z,85.80
2018-05-12T22:02:16.409Z,86.10
2018-05-12T22:04:43.895Z,86.30
2018-05-12T22:07:11.369Z,87.00
2018-05-12T22:09:38.847Z,87.60
2018-05-12T22:12:06.361Z,87.80
2018-05-12T22:14:34.603Z,88.00
2018-05-12T22:17:02.082Z,87.90
2018-05-12T22:19:29.588Z,88.10
2018-05-12T22:21:57.087Z,88.50
2018-05-12T22:24:24.591Z,88.90
2018-05-12T22:26:52.850Z,89.10
2018-05-12T22:29:20.324Z,89.10
2018-05-12T22:31:47.802Z,89.20
2018-05-12T22:34:15.279Z,89.50
2018-05-12T22:36:42.796Z,89.40
2018-05-12T22:39:10.266Z,89.20
2018-05-12T22:41:37.736Z,89.70
2018-05-12T22:44:05.223Z,89.80
2018-05-12T22:46:32.718Z,90.00
2018-05-12T22:49:00.221Z,90.20
2018-05-12T22:51:28.496Z,90.30
2018-05-12T22:53:55.986Z,90.30
2018-05-12T22:56:23.478Z,90.50
2018-05-12T22:58:50.964Z,90.70
2018-05-12T23:01:19.217Z,91.20
2018-05-12T23:03:46.698Z,91.20
2018-05-12T23:06:14.190Z,91.10
2018-05-12T23:08:41.681Z,91.10
2018-05-12T23:11:09.945Z,91.00
2018-05-12T23:13:37.450Z,90.90
2018-05-12T23:16:04.967Z,91.10
2018-05-12T23:18:32.541Z,91.20
2018-05-12T23:21:00.030Z,91.00
2018-05-12T23:23:27.568Z,91.20
2018-05-12T23:25:55.057Z,91.30
2018-05-12T23:28:22.550Z,91.40
2018-05-12T23:30:50.074Z,91.30
2018-05-12T23:33:17.616Z,91.30
2018-05-12T23:35:45.125Z,91.60
2018-05-12T23:38:12.620Z,91.60
2018-05-12T23:40:40.101Z,92.10
2018-05-12T23:43:07.590Z,92.20
2018-05-12T23:45:35.059Z,92.30
2018-05-12T23:48:02.541Z,92.20
2018-05-12T23:50:30.055Z,92.20
2018-05-12T23:52:57.557Z,92.30
2018-05-12T23:55:25.041Z,92.40
2018-05-12T23:57:52.541Z,92.60
